sensor_id;sensor_type;location;lat;lon;timestamp;P1;durP1;ratioP1;P2;durP2;ratioP2
20324;SDS011;10320;49.482;11.256;2023-08-08T00:02:12;10.60;;;8.47;;
20324;SDS011;10320;49.482;11.256;2023-08-08T00:04:38;9.27;;;8.33;;
20324;SDS011;10320;49.482;11.256;2023-08-08T00:07:04;9.47;;;8.33;;
20324;SDS011;10320;49.482;11.256;2023-08-08T00:09:31;12.87;;;8.50;;
20324;SDS011;10320;49.482;11.256;2023-08-08T00:12:06;10.73;;;8.37;;
20324;SDS011;10320;49.482;11.256;2023-08-08T00:14:32;11.27;;;8.90;;
20324;SDS011;10320;49.482;11.256;2023-08-08T00:16:58;9.77;;;8.73;;
20324;SDS011;10320;49.482;11.256;2023-08-08T00:19:24;9.80;;;8.80;;
20324;SDS011;10320;49.482;11.256;2023-08-08T00:21:50;10.07;;;8.47;;
20324;SDS011;10320;49.482;11.256;2023-08-08T00:24:16;8.97;;;7.90;;
20324;SDS011;10320;49.482;11.256;2023-08-08T00:26:42;10.30;;;8.57;;
20324;SDS011;10320;49.482;11.256;2023-08-08T00:29:08;13.53;;;9.00;;
20324;SDS011;10320;49.482;11.256;2023-08-08T00:31:34;10.77;;;8.73;;
20324;SDS011;10320;49.482;11.256;2023-08-08T00:34:00;10.00;;;8.20;;
20324;SDS011;10320;49.482;11.256;2023-08-08T00:36:26;10.50;;;8.63;;
20324;SDS011;10320;49.482;11.256;2023-08-08T00:38:52;9.37;;;7.90;;
20324;SDS011;10320;49.482;11.256;2023-08-08T00:41:18;8.97;;;8.07;;
20324;SDS011;10320;49.482;11.256;2023-08-08T00:43:44;9.87;;;8.20;;
20324;SDS011;10320;49.482;11.256;2023-08-08T00:46:10;12.37;;;8.33;;
20324;SDS011;10320;49.482;11.256;2023-08-08T00:48:37;8.47;;;7.40;;
20324;SDS011;10320;49.482;11.256;2023-08-08T00:51:03;10.60;;;8.33;;
20324;SDS011;10320;49.482;11.256;2023-08-08T00:53:29;8.87;;;7.97;;
20324;SDS011;10320;49.482;11.256;2023-08-08T00:55:56;9.37;;;8.37;;
20324;SDS011;10320;49.482;11.256;2023-08-08T00:58:24;9.80;;;7.90;;
20324;SDS011;10320;49.482;11.256;2023-08-08T01:00:50;10.20;;;8.57;;
20324;SDS011;10320;49.482;11.256;2023-08-08T01:03:19;10.77;;;8.27;;
20324;SDS011;10320;49.482;11.256;2023-08-08T01:06:01;9.93;;;8.60;;
20324;SDS011;10320;49.482;11.256;2023-08-08T01:08:31;10.17;;;8.77;;
20324;SDS011;10320;49.482;11.256;2023-08-08T01:10:58;8.90;;;8.00;;
20324;SDS011;10320;49.482;11.256;2023-08-08T01:13:25;10.47;;;7.77;;
20324;SDS011;10320;49.482;11.256;2023-08-08T01:15:52;8.50;;;7.60;;
20324;SDS011;10320;49.482;11.256;2023-08-08T01:18:19;8.50;;;7.60;;
20324;SDS011;10320;49.482;11.256;2023-08-08T01:20:45;8.67;;;7.73;;
20324;SDS011;10320;49.482;11.256;2023-08-08T01:23:34;10.73;;;7.90;;
20324;SDS011;10320;49.482;11.256;2023-08-08T01:26:05;8.57;;;7.60;;
20324;SDS011;10320;49.482;11.256;2023-08-08T01:28:33;8.33;;;7.47;;
20324;SDS011;10320;49.482;11.256;2023-08-08T01:30:59;8.90;;;7.57;;
20324;SDS011;10320;49.482;11.256;2023-08-08T01:33:25;8.07;;;7.20;;
20324;SDS011;10320;49.482;11.256;2023-08-08T01:35:56;9.13;;;7.40;;
20324;SDS011;10320;49.482;11.256;2023-08-08T01:38:26;8.83;;;7.17;;
20324;SDS011;10320;49.482;11.256;2023-08-08T01:40:54;8.63;;;6.83;;
20324;SDS011;10320;49.482;11.256;2023-08-08T01:43:21;7.53;;;6.73;;
20324;SDS011;10320;49.482;11.256;2023-08-08T01:45:47;8.40;;;6.83;;
20324;SDS011;10320;49.482;11.256;2023-08-08T01:48:13;7.83;;;6.90;;
20324;SDS011;10320;49.482;11.256;2023-08-08T01:50:39;9.90;;;7.53;;
20324;SDS011;10320;49.482;11.256;2023-08-08T01:53:06;8.30;;;7.47;;
20324;SDS011;10320;49.482;11.256;2023-08-08T01:55:32;8.93;;;7.17;;
20324;SDS011;10320;49.482;11.256;2023-08-08T01:57:58;8.17;;;7.37;;
20324;SDS011;10320;49.482;11.256;2023-08-08T02:00:24;10.70;;;7.63;;
20324;SDS011;10320;49.482;11.256;2023-08-08T02:02:50;9.30;;;7.40;;
20324;SDS011;10320;49.482;11.256;2023-08-08T02:05:16;8.87;;;7.50;;
20324;SDS011;10320;49.482;11.256;2023-08-08T02:07:42;9.03;;;7.73;;
20324;SDS011;10320;49.482;11.256;2023-08-08T02:10:08;9.27;;;7.40;;
20324;SDS011;10320;49.482;11.256;2023-08-08T02:12:34;8.30;;;7.37;;
20324;SDS011;10320;49.482;11.256;2023-08-08T02:15:00;7.80;;;7.10;;
20324;SDS011;10320;49.482;11.256;2023-08-08T02:17:26;8.43;;;6.90;;
20324;SDS011;10320;49.482;11.256;2023-08-08T02:19:52;10.10;;;6.80;;
20324;SDS011;10320;49.482;11.256;2023-08-08T02:22:18;8.07;;;6.87;;
20324;SDS011;10320;49.482;11.256;2023-08-08T02:24:45;8.67;;;7.17;;
20324;SDS011;10320;49.482;11.256;2023-08-08T02:27:11;8.60;;;7.10;;
20324;SDS011;10320;49.482;11.256;2023-08-08T02:29:37;7.80;;;6.97;;
20324;SDS011;10320;49.482;11.256;2023-08-08T02:32:04;7.03;;;6.37;;
20324;SDS011;10320;49.482;11.256;2023-08-08T02:34:30;7.73;;;6.90;;
20324;SDS011;10320;49.482;11.256;2023-08-08T02:36:56;7.03;;;6.33;;
20324;SDS011;10320;49.482;11.256;2023-08-08T02:39:22;8.13;;;6.77;;
20324;SDS011;10320;49.482;11.256;2023-08-08T02:41:48;7.17;;;6.47;;
20324;SDS011;10320;49.482;11.256;2023-08-08T02:44:14;11.27;;;6.50;;
20324;SDS011;10320;49.482;11.256;2023-08-08T02:46:40;9.90;;;7.03;;
20324;SDS011;10320;49.482;11.256;2023-08-08T02:49:06;8.37;;;6.57;;
20324;SDS011;10320;49.482;11.256;2023-08-08T02:51:32;7.30;;;6.27;;
20324;SDS011;10320;49.482;11.256;2023-08-08T02:53:58;7.70;;;6.90;;
20324;SDS011;10320;49.482;11.256;2023-08-08T02:56:24;7.17;;;6.47;;
20324;SDS011;10320;49.482;11.256;2023-08-08T02:58:50;7.03;;;6.33;;
20324;SDS011;10320;49.482;11.256;2023-08-08T03:01:16;7.27;;;6.57;;
20324;SDS011;10320;49.482;11.256;2023-08-08T03:03:42;7.10;;;6.50;;
20324;SDS011;10320;49.482;11.256;2023-08-08T03:06:08;7.20;;;6.50;;
20324;SDS011;10320;49.482;11.256;2023-08-08T03:08:34;7.07;;;6.17;;
20324;SDS011;10320;49.482;11.256;2023-08-08T03:11:00;7.17;;;6.17;;
20324;SDS011;10320;49.482;11.256;2023-08-08T03:13:26;6.83;;;6.03;;
20324;SDS011;10320;49.482;11.256;2023-08-08T03:15:52;7.13;;;6.00;;
20324;SDS011;10320;49.482;11.256;2023-08-08T03:18:18;6.83;;;6.10;;
20324;SDS011;10320;49.482;11.256;2023-08-08T03:20:44;7.40;;;5.60;;
20324;SDS011;10320;49.482;11.256;2023-08-08T03:23:10;6.53;;;6.00;;
20324;SDS011;10320;49.482;11.256;2023-08-08T03:25:36;6.00;;;5.50;;
20324;SDS011;10320;49.482;11.256;2023-08-08T03:28:02;5.90;;;5.37;;
20324;SDS011;10320;49.482;11.256;2023-08-08T03:30:28;6.87;;;5.50;;
20324;SDS011;10320;49.482;11.256;2023-08-08T03:32:54;5.90;;;5.37;;
20324;SDS011;10320;49.482;11.256;2023-08-08T03:35:20;5.77;;;5.17;;
20324;SDS011;10320;49.482;11.256;2023-08-08T03:37:46;5.93;;;5.33;;
20324;SDS011;10320;49.482;11.256;2023-08-08T03:40:12;6.00;;;5.40;;
20324;SDS011;10320;49.482;11.256;2023-08-08T03:42:41;6.23;;;5.63;;
20324;SDS011;10320;49.482;11.256;2023-08-08T03:45:07;6.27;;;5.50;;
20324;SDS011;10320;49.482;11.256;2023-08-08T03:47:33;6.23;;;5.63;;
20324;SDS011;10320;49.482;11.256;2023-08-08T03:49:59;6.47;;;5.47;;
20324;SDS011;10320;49.482;11.256;2023-08-08T03:52:25;7.33;;;5.60;;
20324;SDS011;10320;49.482;11.256;2023-08-08T03:54:51;6.10;;;5.53;;
20324;SDS011;10320;49.482;11.256;2023-08-08T03:57:18;5.47;;;4.73;;
20324;SDS011;10320;49.482;11.256;2023-08-08T03:59:44;5.83;;;5.17;;
20324;SDS011;10320;49.482;11.256;2023-08-08T04:02:10;5.30;;;4.80;;
20324;SDS011;10320;49.482;11.256;2023-08-08T04:04:36;5.93;;;5.10;;
20324;SDS011;10320;49.482;11.256;2023-08-08T04:07:03;5.93;;;5.33;;
20324;SDS011;10320;49.482;11.256;2023-08-08T04:09:29;5.57;;;5.07;;
20324;SDS011;10320;49.482;11.256;2023-08-08T04:11:56;5.80;;;5.10;;
20324;SDS011;10320;49.482;11.256;2023-08-08T04:14:22;6.23;;;5.23;;
20324;SDS011;10320;49.482;11.256;2023-08-08T04:16:48;5.67;;;5.07;;
20324;SDS011;10320;49.482;11.256;2023-08-08T04:19:14;6.10;;;5.43;;
20324;SDS011;10320;49.482;11.256;2023-08-08T04:21:40;7.13;;;5.47;;
20324;SDS011;10320;49.482;11.256;2023-08-08T04:24:06;7.40;;;5.37;;
20324;SDS011;10320;49.482;11.256;2023-08-08T04:26:33;6.67;;;5.43;;
20324;SDS011;10320;49.482;11.256;2023-08-08T04:28:59;6.27;;;5.60;;
20324;SDS011;10320;49.482;11.256;2023-08-08T04:31:25;6.30;;;5.50;;
20324;SDS011;10320;49.482;11.256;2023-08-08T04:33:51;5.67;;;5.13;;
20324;SDS011;10320;49.482;11.256;2023-08-08T04:36:23;5.10;;;4.60;;
20324;SDS011;10320;49.482;11.256;2023-08-08T04:38:49;6.83;;;4.97;;
20324;SDS011;10320;49.482;11.256;2023-08-08T04:41:15;5.67;;;5.03;;
20324;SDS011;10320;49.482;11.256;2023-08-08T04:43:41;5.67;;;5.17;;
20324;SDS011;10320;49.482;11.256;2023-08-08T04:46:07;6.70;;;5.37;;
20324;SDS011;10320;49.482;11.256;2023-08-08T04:48:34;6.93;;;5.63;;
20324;SDS011;10320;49.482;11.256;2023-08-08T04:51:02;7.07;;;5.40;;
20324;SDS011;10320;49.482;11.256;2023-08-08T04:53:28;6.60;;;5.60;;
20324;SDS011;10320;49.482;11.256;2023-08-08T04:55:54;6.20;;;5.60;;
20324;SDS011;10320;49.482;11.256;2023-08-08T04:58:20;6.53;;;5.87;;
20324;SDS011;10320;49.482;11.256;2023-08-08T05:00:46;6.07;;;5.47;;
20324;SDS011;10320;49.482;11.256;2023-08-08T05:03:12;6.80;;;6.10;;
20324;SDS011;10320;49.482;11.256;2023-08-08T05:05:38;6.27;;;5.67;;
20324;SDS011;10320;49.482;11.256;2023-08-08T05:08:04;6.20;;;5.57;;
20324;SDS011;10320;49.482;11.256;2023-08-08T05:10:31;6.40;;;5.33;;
20324;SDS011;10320;49.482;11.256;2023-08-08T05:12:57;8.13;;;6.13;;
20324;SDS011;10320;49.482;11.256;2023-08-08T05:15:23;7.00;;;6.17;;
20324;SDS011;10320;49.482;11.256;2023-08-08T05:17:49;7.50;;;6.03;;
20324;SDS011;10320;49.482;11.256;2023-08-08T05:20:16;6.73;;;6.07;;
20324;SDS011;10320;49.482;11.256;2023-08-08T05:22:42;7.30;;;6.27;;
20324;SDS011;10320;49.482;11.256;2023-08-08T05:25:08;7.47;;;6.10;;
20324;SDS011;10320;49.482;11.256;2023-08-08T05:27:34;6.53;;;5.90;;
20324;SDS011;10320;49.482;11.256;2023-08-08T05:30:00;6.83;;;5.77;;
20324;SDS011;10320;49.482;11.256;2023-08-08T05:32:26;6.30;;;5.53;;
20324;SDS011;10320;49.482;11.256;2023-08-08T05:34:52;5.90;;;5.33;;
20324;SDS011;10320;49.482;11.256;2023-08-08T05:37:20;5.87;;;5.17;;
20324;SDS011;10320;49.482;11.256;2023-08-08T05:39:46;5.70;;;5.10;;
20324;SDS011;10320;49.482;11.256;2023-08-08T05:42:12;6.10;;;5.13;;
20324;SDS011;10320;49.482;11.256;2023-08-08T05:44:38;5.60;;;5.00;;
20324;SDS011;10320;49.482;11.256;2023-08-08T05:47:06;6.23;;;5.43;;
20324;SDS011;10320;49.482;11.256;2023-08-08T05:49:33;5.17;;;4.50;;
20324;SDS011;10320;49.482;11.256;2023-08-08T05:51:59;5.70;;;4.77;;
20324;SDS011;10320;49.482;11.256;2023-08-08T05:54:25;6.17;;;4.97;;
20324;SDS011;10320;49.482;11.256;2023-08-08T05:56:51;5.73;;;4.40;;
20324;SDS011;10320;49.482;11.256;2023-08-08T05:59:17;6.07;;;4.40;;
20324;SDS011;10320;49.482;11.256;2023-08-08T06:01:43;4.77;;;4.37;;
20324;SDS011;10320;49.482;11.256;2023-08-08T06:04:10;4.47;;;4.07;;
20324;SDS011;10320;49.482;11.256;2023-08-08T06:06:36;4.37;;;3.97;;
20324;SDS011;10320;49.482;11.256;2023-08-08T06:09:02;4.13;;;3.50;;
20324;SDS011;10320;49.482;11.256;2023-08-08T06:11:28;4.47;;;3.73;;
20324;SDS011;10320;49.482;11.256;2023-08-08T06:13:54;5.33;;;3.47;;
20324;SDS011;10320;49.482;11.256;2023-08-08T06:16:20;4.67;;;3.70;;
20324;SDS011;10320;49.482;11.256;2023-08-08T06:18:46;4.77;;;3.50;;
20324;SDS011;10320;49.482;11.256;2023-08-08T06:21:12;5.03;;;3.87;;
20324;SDS011;10320;49.482;11.256;2023-08-08T06:23:38;4.53;;;3.10;;
20324;SDS011;10320;49.482;11.256;2023-08-08T06:26:04;4.83;;;3.27;;
20324;SDS011;10320;49.482;11.256;2023-08-08T06:28:31;3.40;;;3.10;;
20324;SDS011;10320;49.482;11.256;2023-08-08T06:30:57;3.10;;;2.80;;
20324;SDS011;10320;49.482;11.256;2023-08-08T06:33:23;3.27;;;2.80;;
20324;SDS011;10320;49.482;11.256;2023-08-08T06:35:50;3.13;;;2.67;;
20324;SDS011;10320;49.482;11.256;2023-08-08T06:38:16;4.87;;;3.00;;
20324;SDS011;10320;49.482;11.256;2023-08-08T06:40:42;3.50;;;2.60;;
20324;SDS011;10320;49.482;11.256;2023-08-08T06:43:08;3.90;;;2.13;;
20324;SDS011;10320;49.482;11.256;2023-08-08T06:45:34;3.27;;;2.50;;
20324;SDS011;10320;49.482;11.256;2023-08-08T06:48:01;3.80;;;2.50;;
20324;SDS011;10320;49.482;11.256;2023-08-08T06:50:27;3.73;;;2.40;;
20324;SDS011;10320;49.482;11.256;2023-08-08T06:52:53;4.10;;;2.50;;
20324;SDS011;10320;49.482;11.256;2023-08-08T06:55:19;3.80;;;2.50;;
20324;SDS011;10320;49.482;11.256;2023-08-08T06:57:45;5.10;;;2.67;;
20324;SDS011;10320;49.482;11.256;2023-08-08T07:00:12;2.53;;;2.30;;
20324;SDS011;10320;49.482;11.256;2023-08-08T07:02:38;4.87;;;2.43;;
20324;SDS011;10320;49.482;11.256;2023-08-08T07:05:05;2.30;;;2.10;;
20324;SDS011;10320;49.482;11.256;2023-08-08T07:07:31;5.37;;;2.40;;
20324;SDS011;10320;49.482;11.256;2023-08-08T07:09:58;3.77;;;2.40;;
20324;SDS011;10320;49.482;11.256;2023-08-08T07:12:24;2.90;;;2.43;;
20324;SDS011;10320;49.482;11.256;2023-08-08T07:14:50;3.53;;;2.47;;
20324;SDS011;10320;49.482;11.256;2023-08-08T07:17:16;2.83;;;2.17;;
20324;SDS011;10320;49.482;11.256;2023-08-08T07:19:42;3.03;;;2.40;;
20324;SDS011;10320;49.482;11.256;2023-08-08T07:22:08;2.70;;;2.50;;
20324;SDS011;10320;49.482;11.256;2023-08-08T07:24:34;2.50;;;2.17;;
20324;SDS011;10320;49.482;11.256;2023-08-08T07:27:01;2.20;;;2.00;;
20324;SDS011;10320;49.482;11.256;2023-08-08T07:29:27;3.57;;;2.03;;
20324;SDS011;10320;49.482;11.256;2023-08-08T07:31:53;5.03;;;2.37;;
20324;SDS011;10320;49.482;11.256;2023-08-08T07:34:19;4.20;;;2.33;;
20324;SDS011;10320;49.482;11.256;2023-08-08T07:36:47;4.67;;;2.20;;
20324;SDS011;10320;49.482;11.256;2023-08-08T07:39:13;3.43;;;2.20;;
20324;SDS011;10320;49.482;11.256;2023-08-08T07:41:39;2.83;;;2.00;;
20324;SDS011;10320;49.482;11.256;2023-08-08T07:44:05;2.60;;;2.40;;
20324;SDS011;10320;49.482;11.256;2023-08-08T07:46:31;2.93;;;1.90;;
20324;SDS011;10320;49.482;11.256;2023-08-08T07:48:57;3.07;;;2.30;;
20324;SDS011;10320;49.482;11.256;2023-08-08T07:51:28;3.40;;;2.20;;
20324;SDS011;10320;49.482;11.256;2023-08-08T07:53:54;2.40;;;1.83;;
20324;SDS011;10320;49.482;11.256;2023-08-08T07:56:20;3.40;;;1.93;;
20324;SDS011;10320;49.482;11.256;2023-08-08T07:58:46;4.53;;;1.97;;
20324;SDS011;10320;49.482;11.256;2023-08-08T08:01:12;2.03;;;1.93;;
20324;SDS011;10320;49.482;11.256;2023-08-08T08:03:39;2.03;;;1.80;;
20324;SDS011;10320;49.482;11.256;2023-08-08T08:06:05;2.10;;;1.90;;
20324;SDS011;10320;49.482;11.256;2023-08-08T08:08:31;4.13;;;2.00;;
20324;SDS011;10320;49.482;11.256;2023-08-08T08:10:57;3.40;;;1.90;;
20324;SDS011;10320;49.482;11.256;2023-08-08T08:13:23;3.33;;;1.90;;
20324;SDS011;10320;49.482;11.256;2023-08-08T08:15:49;3.20;;;2.07;;
20324;SDS011;10320;49.482;11.256;2023-08-08T08:18:16;4.80;;;2.60;;
20324;SDS011;10320;49.482;11.256;2023-08-08T08:20:43;2.57;;;2.20;;
20324;SDS011;10320;49.482;11.256;2023-08-08T08:23:09;3.03;;;2.27;;
20324;SDS011;10320;49.482;11.256;2023-08-08T08:25:35;3.47;;;2.30;;
20324;SDS011;10320;49.482;11.256;2023-08-08T08:28:01;2.30;;;2.00;;
20324;SDS011;10320;49.482;11.256;2023-08-08T08:30:28;2.20;;;2.00;;
20324;SDS011;10320;49.482;11.256;2023-08-08T08:32:54;2.27;;;1.93;;
20324;SDS011;10320;49.482;11.256;2023-08-08T08:35:21;3.50;;;2.10;;
20324;SDS011;10320;49.482;11.256;2023-08-08T08:37:47;2.77;;;1.90;;
20324;SDS011;10320;49.482;11.256;2023-08-08T08:40:14;2.90;;;1.80;;
20324;SDS011;10320;49.482;11.256;2023-08-08T08:42:40;3.93;;;1.70;;
20324;SDS011;10320;49.482;11.256;2023-08-08T08:45:06;2.60;;;1.97;;
20324;SDS011;10320;49.482;11.256;2023-08-08T08:47:34;3.17;;;1.90;;
20324;SDS011;10320;49.482;11.256;2023-08-08T08:50:01;2.50;;;1.60;;
20324;SDS011;10320;49.482;11.256;2023-08-08T08:52:28;2.20;;;1.67;;
20324;SDS011;10320;49.482;11.256;2023-08-08T08:54:55;2.40;;;1.70;;
20324;SDS011;10320;49.482;11.256;2023-08-08T08:57:21;2.13;;;1.40;;
20324;SDS011;10320;49.482;11.256;2023-08-08T08:59:51;2.97;;;1.57;;
20324;SDS011;10320;49.482;11.256;2023-08-08T09:02:17;2.20;;;1.45;;
20324;SDS011;10320;49.482;11.256;2023-08-08T09:04:44;2.17;;;1.65;;
20324;SDS011;10320;49.482;11.256;2023-08-08T09:07:10;2.00;;;1.52;;
20324;SDS011;10320;49.482;11.256;2023-08-08T09:09:37;1.35;;;1.20;;
20324;SDS011;10320;49.482;11.256;2023-08-08T09:12:03;2.10;;;1.40;;
20324;SDS011;10320;49.482;11.256;2023-08-08T09:14:30;4.22;;;1.80;;
20324;SDS011;10320;49.482;11.256;2023-08-08T09:16:56;2.33;;;1.55;;
20324;SDS011;10320;49.482;11.256;2023-08-08T09:19:23;1.93;;;1.63;;
20324;SDS011;10320;49.482;11.256;2023-08-08T09:21:50;1.85;;;1.42;;
20324;SDS011;10320;49.482;11.256;2023-08-08T09:24:16;1.42;;;1.20;;
20324;SDS011;10320;49.482;11.256;2023-08-08T09:26:43;1.50;;;1.20;;
20324;SDS011;10320;49.482;11.256;2023-08-08T09:29:10;2.40;;;1.37;;
20324;SDS011;10320;49.482;11.256;2023-08-08T09:31:36;2.00;;;1.50;;
20324;SDS011;10320;49.482;11.256;2023-08-08T09:34:03;2.37;;;1.30;;
20324;SDS011;10320;49.482;11.256;2023-08-08T09:36:29;2.50;;;1.33;;
20324;SDS011;10320;49.482;11.256;2023-08-08T09:38:55;1.38;;;1.15;;
20324;SDS011;10320;49.482;11.256;2023-08-08T09:41:22;2.30;;;1.25;;
20324;SDS011;10320;49.482;11.256;2023-08-08T09:43:48;2.53;;;1.33;;
20324;SDS011;10320;49.482;11.256;2023-08-08T09:46:14;2.33;;;1.60;;
20324;SDS011;10320;49.482;11.256;2023-08-08T09:48:43;1.30;;;1.17;;
20324;SDS011;10320;49.482;11.256;2023-08-08T09:51:09;2.57;;;1.40;;
20324;SDS011;10320;49.482;11.256;2023-08-08T09:53:36;1.73;;;1.30;;
20324;SDS011;10320;49.482;11.256;2023-08-08T09:56:03;2.03;;;1.33;;
20324;SDS011;10320;49.482;11.256;2023-08-08T09:58:29;1.43;;;1.30;;
20324;SDS011;10320;49.482;11.256;2023-08-08T10:00:56;3.17;;;1.40;;
20324;SDS011;10320;49.482;11.256;2023-08-08T10:03:23;9.33;;;2.07;;
20324;SDS011;10320;49.482;11.256;2023-08-08T10:05:49;2.33;;;1.20;;
20324;SDS011;10320;49.482;11.256;2023-08-08T10:08:15;2.38;;;1.40;;
20324;SDS011;10320;49.482;11.256;2023-08-08T10:10:45;2.00;;;1.20;;
20324;SDS011;10320;49.482;11.256;2023-08-08T10:13:21;1.90;;;1.37;;
20324;SDS011;10320;49.482;11.256;2023-08-08T10:15:48;5.80;;;1.30;;
20324;SDS011;10320;49.482;11.256;2023-08-08T10:18:14;2.03;;;1.17;;
20324;SDS011;10320;49.482;11.256;2023-08-08T10:20:44;2.07;;;1.40;;
20324;SDS011;10320;49.482;11.256;2023-08-08T10:23:10;1.67;;;1.30;;
20324;SDS011;10320;49.482;11.256;2023-08-08T10:25:36;2.53;;;1.60;;
20324;SDS011;10320;49.482;11.256;2023-08-08T10:30:28;1.35;;;1.20;;
20324;SDS011;10320;49.482;11.256;2023-08-08T10:32:56;1.40;;;1.30;;
20324;SDS011;10320;49.482;11.256;2023-08-08T10:35:24;2.90;;;1.30;;
20324;SDS011;10320;49.482;11.256;2023-08-08T10:38:00;2.45;;;1.30;;
20324;SDS011;10320;49.482;11.256;2023-08-08T10:40:32;2.25;;;1.38;;
20324;SDS011;10320;49.482;11.256;2023-08-08T10:42:58;2.67;;;1.60;;
20324;SDS011;10320;49.482;11.256;2023-08-08T10:45:28;1.70;;;1.55;;
20324;SDS011;10320;49.482;11.256;2023-08-08T10:47:55;1.85;;;1.20;;
20324;SDS011;10320;49.482;11.256;2023-08-08T10:50:24;2.50;;;1.30;;
20324;SDS011;10320;49.482;11.256;2023-08-08T10:52:56;1.75;;;1.23;;
20324;SDS011;10320;49.482;11.256;2023-08-08T10:55:26;1.52;;;1.25;;
20324;SDS011;10320;49.482;11.256;2023-08-08T10:57:57;2.85;;;1.20;;
20324;SDS011;10320;49.482;11.256;2023-08-08T11:00:24;1.95;;;1.25;;
20324;SDS011;10320;49.482;11.256;2023-08-08T11:02:51;3.67;;;1.30;;
20324;SDS011;10320;49.482;11.256;2023-08-08T11:05:17;2.75;;;1.50;;
20324;SDS011;10320;49.482;11.256;2023-08-08T11:07:44;1.50;;;1.40;;
20324;SDS011;10320;49.482;11.256;2023-08-08T11:10:10;2.45;;;1.50;;
20324;SDS011;10320;49.482;11.256;2023-08-08T11:12:36;3.03;;;1.40;;
20324;SDS011;10320;49.482;11.256;2023-08-08T11:15:02;2.03;;;1.38;;
20324;SDS011;10320;49.482;11.256;2023-08-08T11:17:28;1.30;;;1.20;;
20324;SDS011;10320;49.482;11.256;2023-08-08T11:19:54;2.22;;;1.30;;
20324;SDS011;10320;49.482;11.256;2023-08-08T11:22:20;2.30;;;1.40;;
20324;SDS011;10320;49.482;11.256;2023-08-08T11:24:48;1.80;;;1.50;;
20324;SDS011;10320;49.482;11.256;2023-08-08T11:27:15;2.20;;;1.27;;
20324;SDS011;10320;49.482;11.256;2023-08-08T11:29:48;1.40;;;1.30;;
20324;SDS011;10320;49.482;11.256;2023-08-08T11:32:15;1.38;;;1.25;;
20324;SDS011;10320;49.482;11.256;2023-08-08T11:34:41;1.30;;;1.10;;
20324;SDS011;10320;49.482;11.256;2023-08-08T11:37:08;2.95;;;1.42;;
20324;SDS011;10320;49.482;11.256;2023-08-08T11:39:34;2.78;;;1.05;;
20324;SDS011;10320;49.482;11.256;2023-08-08T11:42:00;1.35;;;1.25;;
20324;SDS011;10320;49.482;11.256;2023-08-08T11:44:26;1.40;;;1.17;;
20324;SDS011;10320;49.482;11.256;2023-08-08T11:46:53;1.67;;;1.50;;
20324;SDS011;10320;49.482;11.256;2023-08-08T11:49:19;1.50;;;1.30;;
20324;SDS011;10320;49.482;11.256;2023-08-08T11:51:45;1.30;;;1.15;;
20324;SDS011;10320;49.482;11.256;2023-08-08T11:54:11;2.05;;;1.30;;
20324;SDS011;10320;49.482;11.256;2023-08-08T11:56:37;1.58;;;1.40;;
20324;SDS011;10320;49.482;11.256;2023-08-08T11:59:04;1.88;;;1.30;;
20324;SDS011;10320;49.482;11.256;2023-08-08T12:01:33;1.30;;;1.20;;
20324;SDS011;10320;49.482;11.256;2023-08-08T12:04:06;1.55;;;1.23;;
20324;SDS011;10320;49.482;11.256;2023-08-08T12:06:32;1.85;;;1.50;;
20324;SDS011;10320;49.482;11.256;2023-08-08T12:09:00;2.20;;;1.70;;
20324;SDS011;10320;49.482;11.256;2023-08-08T12:11:27;1.58;;;1.48;;
20324;SDS011;10320;49.482;11.256;2023-08-08T12:13:57;1.63;;;1.33;;
20324;SDS011;10320;49.482;11.256;2023-08-08T12:16:27;2.28;;;1.60;;
20324;SDS011;10320;49.482;11.256;2023-08-08T12:18:53;1.88;;;1.50;;
20324;SDS011;10320;49.482;11.256;2023-08-08T12:21:19;4.32;;;1.60;;
20324;SDS011;10320;49.482;11.256;2023-08-08T12:23:45;2.85;;;1.42;;
20324;SDS011;10320;49.482;11.256;2023-08-08T12:26:11;1.50;;;1.40;;
20324;SDS011;10320;49.482;11.256;2023-08-08T12:28:37;1.55;;;1.42;;
20324;SDS011;10320;49.482;11.256;2023-08-08T12:31:03;2.08;;;1.58;;
20324;SDS011;10320;49.482;11.256;2023-08-08T12:33:29;3.17;;;1.60;;
20324;SDS011;10320;49.482;11.256;2023-08-08T12:35:55;3.78;;;2.25;;
20324;SDS011;10320;49.482;11.256;2023-08-08T12:38:21;2.28;;;1.70;;
20324;SDS011;10320;49.482;11.256;2023-08-08T12:40:47;2.47;;;1.50;;
20324;SDS011;10320;49.482;11.256;2023-08-08T12:43:13;1.55;;;1.30;;
20324;SDS011;10320;49.482;11.256;2023-08-08T12:45:43;1.50;;;1.40;;
20324;SDS011;10320;49.482;11.256;2023-08-08T12:48:10;1.75;;;1.48;;
20324;SDS011;10320;49.482;11.256;2023-08-08T12:50:36;3.45;;;1.52;;
20324;SDS011;10320;49.482;11.256;2023-08-08T12:53:02;3.00;;;1.60;;
20324;SDS011;10320;49.482;11.256;2023-08-08T12:55:29;3.50;;;1.65;;
20324;SDS011;10320;49.482;11.256;2023-08-08T12:57:55;2.95;;;1.75;;
20324;SDS011;10320;49.482;11.256;2023-08-08T13:00:21;1.92;;;1.63;;
20324;SDS011;10320;49.482;11.256;2023-08-08T13:02:48;2.95;;;1.60;;
20324;SDS011;10320;49.482;11.256;2023-08-08T13:05:14;1.27;;;1.17;;
20324;SDS011;10320;49.482;11.256;2023-08-08T13:07:40;1.70;;;1.40;;
20324;SDS011;10320;49.482;11.256;2023-08-08T13:10:06;1.63;;;1.45;;
20324;SDS011;10320;49.482;11.256;2023-08-08T13:12:33;2.00;;;1.40;;
20324;SDS011;10320;49.482;11.256;2023-08-08T13:14:59;1.98;;;1.52;;
20324;SDS011;10320;49.482;11.256;2023-08-08T13:17:25;2.10;;;1.30;;
20324;SDS011;10320;49.482;11.256;2023-08-08T13:19:51;2.15;;;1.50;;
20324;SDS011;10320;49.482;11.256;2023-08-08T13:22:17;1.75;;;1.50;;
20324;SDS011;10320;49.482;11.256;2023-08-08T13:24:43;1.25;;;1.15;;
20324;SDS011;10320;49.482;11.256;2023-08-08T13:27:09;2.95;;;1.55;;
20324;SDS011;10320;49.482;11.256;2023-08-08T13:29:36;2.28;;;1.50;;
20324;SDS011;10320;49.482;11.256;2023-08-08T13:32:02;1.55;;;1.45;;
20324;SDS011;10320;49.482;11.256;2023-08-08T13:34:28;3.95;;;1.70;;
20324;SDS011;10320;49.482;11.256;2023-08-08T13:36:54;1.90;;;1.50;;
20324;SDS011;10320;49.482;11.256;2023-08-08T13:39:20;1.98;;;1.30;;
20324;SDS011;10320;49.482;11.256;2023-08-08T13:41:46;2.08;;;1.30;;
20324;SDS011;10320;49.482;11.256;2023-08-08T13:44:13;3.35;;;2.00;;
20324;SDS011;10320;49.482;11.256;2023-08-08T13:46:39;1.42;;;1.30;;
20324;SDS011;10320;49.482;11.256;2023-08-08T13:49:05;3.00;;;1.70;;
20324;SDS011;10320;49.482;11.256;2023-08-08T13:51:31;2.25;;;1.70;;
20324;SDS011;10320;49.482;11.256;2023-08-08T13:53:57;1.70;;;1.52;;
20324;SDS011;10320;49.482;11.256;2023-08-08T13:56:23;1.67;;;1.38;;
20324;SDS011;10320;49.482;11.256;2023-08-08T13:58:49;2.10;;;1.50;;
20324;SDS011;10320;49.482;11.256;2023-08-08T14:01:15;2.67;;;1.63;;
20324;SDS011;10320;49.482;11.256;2023-08-08T14:03:41;1.30;;;1.17;;
20324;SDS011;10320;49.482;11.256;2023-08-08T14:06:07;1.80;;;1.42;;
20324;SDS011;10320;49.482;11.256;2023-08-08T14:08:33;2.38;;;1.45;;
20324;SDS011;10320;49.482;11.256;2023-08-08T14:10:59;1.95;;;1.50;;
20324;SDS011;10320;49.482;11.256;2023-08-08T14:13:25;2.60;;;1.50;;
20324;SDS011;10320;49.482;11.256;2023-08-08T14:15:51;1.90;;;1.50;;
20324;SDS011;10320;49.482;11.256;2023-08-08T14:18:17;1.83;;;1.55;;
20324;SDS011;10320;49.482;11.256;2023-08-08T14:20:43;2.67;;;1.23;;
20324;SDS011;10320;49.482;11.256;2023-08-08T14:23:09;1.70;;;1.60;;
20324;SDS011;10320;49.482;11.256;2023-08-08T14:25:35;1.75;;;1.40;;
20324;SDS011;10320;49.482;11.256;2023-08-08T14:28:01;3.03;;;1.60;;
20324;SDS011;10320;49.482;11.256;2023-08-08T14:30:29;3.53;;;1.52;;
20324;SDS011;10320;49.482;11.256;2023-08-08T14:32:55;2.28;;;1.80;;